createdAt,value
2017-01-23T00:00:55.563Z,1012.87
2017-01-23T00:01:55.575Z,1012.88
2017-01-23T00:02:55.584Z,1012.88
2017-01-23T00:03:55.593Z,1012.84
2017-01-23T00:04:55.602Z,1012.83
2017-01-23T00:05:55.612Z,1012.77
2017-01-23T00:06:55.623Z,1012.78
2017-01-23T00:07:55.630Z,1012.75
2017-01-23T00:08:55.642Z,1012.79
2017-01-23T00:09:55.652Z,1012.8
2017-01-23T00:10:55.660Z,1012.76
2017-01-23T00:11:55.670Z,1012.74
2017-01-23T00:12:55.679Z,1012.74
2017-01-23T00:13:55.689Z,1012.74
2017-01-23T00:14:55.699Z,1012.77
2017-01-23T00:15:55.708Z,1012.76
2017-01-23T00:16:55.717Z,1012.76
2017-01-23T00:17:55.730Z,1012.79
2017-01-23T00:18:55.736Z,1012.78
2017-01-23T00:19:55.748Z,1012.8
2017-01-23T00:20:55.758Z,1012.82
2017-01-23T00:21:55.768Z,1012.8
2017-01-23T00:22:55.781Z,1012.74
2017-01-23T00:23:55.788Z,1012.72
2017-01-23T00:24:55.795Z,1012.7
2017-01-23T00:25:55.804Z,1012.7
2017-01-23T00:26:55.814Z,1012.75
2017-01-23T00:27:55.825Z,1012.72
2017-01-23T00:28:55.834Z,1012.76
2017-01-23T00:29:55.844Z,1012.73
2017-01-23T00:30:55.855Z,1012.74
2017-01-23T00:31:55.864Z,1012.75
2017-01-23T00:32:55.876Z,1012.76
2017-01-23T00:33:55.886Z,1012.76
2017-01-23T00:34:55.893Z,1012.75
2017-01-23T00:35:55.902Z,1012.71
2017-01-23T00:36:55.912Z,1012.74
2017-01-23T00:37:55.921Z,1012.72
2017-01-23T00:38:55.960Z,1012.75
2017-01-23T00:39:55.940Z,1012.75
2017-01-23T00:40:55.948Z,1012.73
2017-01-23T00:41:55.959Z,1012.7
2017-01-23T00:42:55.968Z,1012.74
2017-01-23T00:43:55.978Z,1012.72
2017-01-23T00:44:55.988Z,1012.66
2017-01-23T00:45:56.001Z,1012.64
2017-01-23T00:46:56.009Z,1012.66
2017-01-23T00:47:56.016Z,1012.66
2017-01-23T00:48:56.025Z,1012.67
2017-01-23T00:49:56.034Z,1012.63
2017-01-23T00:50:56.045Z,1012.68
2017-01-23T00:51:56.056Z,1012.64
2017-01-23T00:52:56.063Z,1012.66
2017-01-23T00:53:56.074Z,1012.6
2017-01-23T00:54:56.081Z,1012.59
2017-01-23T00:55:56.092Z,1012.57
2017-01-23T00:56:56.102Z,1012.6
2017-01-23T00:57:56.112Z,1012.57
2017-01-23T00:58:56.119Z,1012.57
2017-01-23T00:59:56.129Z,1012.53
2017-01-23T01:00:56.140Z,1012.59
2017-01-23T01:01:56.148Z,1012.5
2017-01-23T01:02:56.162Z,1012.48
2017-01-23T01:03:56.170Z,1012.53
2017-01-23T01:04:56.177Z,1012.52
2017-01-23T01:05:56.184Z,1012.51
2017-01-23T01:06:56.203Z,1012.53
2017-01-23T01:07:56.208Z,1012.53
2017-01-23T01:08:56.214Z,1012.51
2017-01-23T01:09:56.224Z,1012.57
2017-01-23T01:10:56.237Z,1012.5
2017-01-23T01:11:56.245Z,1012.46
2017-01-23T01:12:56.254Z,1012.48
2017-01-23T01:13:56.262Z,1012.5
2017-01-23T01:14:56.270Z,1012.49
2017-01-23T01:15:56.280Z,1012.48
2017-01-23T01:16:56.291Z,1012.56
2017-01-23T01:17:56.299Z,1012.53
2017-01-23T01:18:56.308Z,1012.53
2017-01-23T01:19:56.318Z,1012.54
2017-01-23T01:20:56.328Z,1012.5
2017-01-23T01:21:56.337Z,1012.49
2017-01-23T01:22:56.356Z,1012.44
2017-01-23T01:23:56.359Z,1012.48
2017-01-23T01:24:56.369Z,1012.44
2017-01-23T01:25:56.376Z,1012.42
2017-01-23T01:26:56.385Z,1012.4
2017-01-23T01:27:56.397Z,1012.39
2017-01-23T01:28:56.405Z,1012.39
2017-01-23T01:29:56.415Z,1012.4
2017-01-23T01:30:56.426Z,1012.42
2017-01-23T01:31:56.433Z,1012.43
2017-01-23T01:32:56.443Z,1012.4
2017-01-23T01:33:56.455Z,1012.48
2017-01-23T01:34:56.464Z,1012.46
2017-01-23T01:35:56.473Z,1012.47
2017-01-23T01:36:56.482Z,1012.44
2017-01-23T01:37:56.495Z,1012.47
2017-01-23T01:38:56.507Z,1012.45
2017-01-23T01:39:56.509Z,1012.47
2017-01-23T01:40:56.525Z,1012.45
2017-01-23T01:41:56.530Z,1012.45
2017-01-23T01:42:56.539Z,1012.46
2017-01-23T01:43:56.547Z,1012.5
2017-01-23T01:44:56.557Z,1012.55
2017-01-23T01:45:56.569Z,1012.52
2017-01-23T01:46:56.579Z,1012.55
2017-01-23T01:47:56.588Z,1012.56
2017-01-23T01:48:56.599Z,1012.57
2017-01-23T01:49:56.608Z,1012.53
2017-01-23T01:50:56.618Z,1012.55
2017-01-23T01:51:56.627Z,1012.54
2017-01-23T01:52:56.633Z,1012.59
2017-01-23T01:53:56.645Z,1012.62
2017-01-23T01:54:56.654Z,1012.6
2017-01-23T01:55:56.662Z,1012.56
2017-01-23T01:56:56.676Z,1012.64
2017-01-23T01:57:56.679Z,1012.66
2017-01-23T01:58:56.690Z,1012.6
2017-01-23T01:59:56.699Z,1012.66
2017-01-23T02:00:56.710Z,1012.62
2017-01-23T02:01:56.717Z,1012.62
2017-01-23T02:02:56.733Z,1012.64
2017-01-23T02:03:56.739Z,1012.66
2017-01-23T02:04:56.747Z,1012.65
2017-01-23T02:05:56.756Z,1012.65
2017-01-23T02:06:56.770Z,1012.6
2017-01-23T02:07:56.776Z,1012.6
2017-01-23T02:08:56.793Z,1012.6
2017-01-23T02:09:56.804Z,1012.62
2017-01-23T02:10:56.803Z,1012.6
2017-01-23T02:11:56.812Z,1012.58
2017-01-23T02:12:56.822Z,1012.54
2017-01-23T02:13:56.835Z,1012.55
2017-01-23T02:14:56.843Z,1012.57
2017-01-23T02:15:56.850Z,1012.54
2017-01-23T02:16:56.859Z,1012.55
2017-01-23T02:17:56.870Z,1012.56
2017-01-23T02:18:56.880Z,1012.54
2017-01-23T02:19:56.913Z,1012.52
2017-01-23T02:20:56.902Z,1012.5
2017-01-23T02:21:56.908Z,1012.48
2017-01-23T02:22:56.917Z,1012.48
2017-01-23T02:23:56.928Z,1012.55
2017-01-23T02:24:56.936Z,1012.51
2017-01-23T02:25:56.955Z,1012.5
2017-01-23T02:26:56.956Z,1012.46
2017-01-23T02:27:56.965Z,1012.49
2017-01-23T02:28:56.973Z,1012.47
2017-01-23T02:29:56.983Z,1012.5
2017-01-23T02:30:56.996Z,1012.51
2017-01-23T02:31:57.003Z,1012.51
2017-01-23T02:32:57.015Z,1012.53
2017-01-23T02:33:57.022Z,1012.49
2017-01-23T02:34:57.042Z,1012.47
2017-01-23T02:35:57.039Z,1012.47
2017-01-23T02:36:57.052Z,1012.46
2017-01-23T02:37:57.058Z,1012.38
2017-01-23T02:38:57.068Z,1012.4
2017-01-23T02:39:57.080Z,1012.39
2017-01-23T02:40:57.086Z,1012.35
2017-01-23T02:41:57.097Z,1012.39
2017-01-23T02:42:57.105Z,1012.38
2017-01-23T02:43:57.120Z,1012.39
2017-01-23T02:44:57.125Z,1012.39
2017-01-23T02:45:57.134Z,1012.4
2017-01-23T02:46:57.144Z,1012.37
2017-01-23T02:47:57.154Z,1012.35
2017-01-23T02:48:57.163Z,1012.36
2017-01-23T02:49:57.173Z,1012.34
2017-01-23T02:50:57.182Z,1012.35
2017-01-23T02:51:57.192Z,1012.33
2017-01-23T02:52:57.200Z,1012.32
2017-01-23T02:53:57.209Z,1012.29
2017-01-23T02:54:57.246Z,1012.3
2017-01-23T02:55:57.230Z,1012.31
2017-01-23T02:56:57.241Z,1012.3
2017-01-23T02:57:57.248Z,1012.27
2017-01-23T02:58:57.259Z,1012.26
2017-01-23T02:59:57.266Z,1012.27
2017-01-23T03:00:57.283Z,1012.28
2017-01-23T03:01:57.286Z,1012.27
2017-01-23T03:02:57.294Z,1012.3
2017-01-23T03:03:57.303Z,1012.28
2017-01-23T03:04:57.314Z,1012.27
2017-01-23T03:05:57.329Z,1012.29
2017-01-23T03:06:57.336Z,1012.3
2017-01-23T03:07:57.341Z,1012.28
2017-01-23T03:08:57.353Z,1012.29
2017-01-23T03:09:57.361Z,1012.25
2017-01-23T03:10:57.372Z,1012.28
2017-01-23T03:11:57.381Z,1012.26
2017-01-23T03:12:57.391Z,1012.23
2017-01-23T03:13:57.403Z,1012.23
2017-01-23T03:14:57.408Z,1012.2
2017-01-23T03:15:57.455Z,1012.2
2017-01-23T03:16:57.435Z,1012.18
2017-01-23T03:17:57.438Z,1012.18
2017-01-23T03:18:57.448Z,1012.2
2017-01-23T03:19:57.457Z,1012.2
2017-01-23T03:20:57.469Z,1012.17
2017-01-23T03:21:57.473Z,1012.18
2017-01-23T03:22:57.488Z,1012.21
2017-01-23T03:23:57.496Z,1012.18
2017-01-23T03:24:57.501Z,1012.22
2017-01-23T03:25:57.517Z,1012.21
2017-01-23T03:26:57.523Z,1012.22
2017-01-23T03:27:57.546Z,1012.27
2017-01-23T03:28:57.541Z,1012.26
2017-01-23T03:29:57.550Z,1012.25
2017-01-23T03:30:57.562Z,1012.22
2017-01-23T03:31:57.572Z,1012.25
2017-01-23T03:32:57.577Z,1012.24
2017-01-23T03:33:57.587Z,1012.25
2017-01-23T03:34:57.600Z,1012.28
2017-01-23T03:35:57.606Z,1012.25
2017-01-23T03:36:57.615Z,1012.25
2017-01-23T03:37:57.628Z,1012.26
2017-01-23T03:38:57.635Z,1012.25
2017-01-23T03:39:57.648Z,1012.29
2017-01-23T03:40:57.653Z,1012.27
2017-01-23T03:41:57.662Z,1012.32
2017-01-23T03:42:57.672Z,1012.26
2017-01-23T03:43:57.682Z,1012.27
2017-01-23T03:44:57.690Z,1012.3
2017-01-23T03:45:57.705Z,1012.3
2017-01-23T03:46:57.709Z,1012.28
2017-01-23T03:47:57.719Z,1012.3
2017-01-23T03:48:57.729Z,1012.3
2017-01-23T03:49:57.737Z,1012.25
2017-01-23T03:50:57.748Z,1012.21
2017-01-23T03:51:57.757Z,1012.21
2017-01-23T03:52:57.770Z,1012.22
2017-01-23T03:53:57.782Z,1012.21
2017-01-23T03:54:57.785Z,1012.2
2017-01-23T03:55:57.797Z,1012.25
2017-01-23T03:56:57.805Z,1012.17
2017-01-23T03:57:57.814Z,1012.19
2017-01-23T03:58:57.823Z,1012.19
2017-01-23T03:59:57.836Z,1012.15
2017-01-23T04:00:57.841Z,1012.15
2017-01-23T04:01:57.850Z,1012.15
2017-01-23T04:02:57.860Z,1012.16
2017-01-23T04:03:57.870Z,1012.13
2017-01-23T04:04:57.885Z,1012.13
2017-01-23T04:05:57.892Z,1012.13
2017-01-23T04:06:57.898Z,1012.13
2017-01-23T04:07:57.906Z,1012.12
2017-01-23T04:08:57.919Z,1012.13
2017-01-23T04:09:57.931Z,1012.1
2017-01-23T04:10:57.938Z,1012.12
2017-01-23T04:11:57.947Z,1012.07
2017-01-23T04:12:57.953Z,1012.06
2017-01-23T04:13:57.982Z,1012.07
2017-01-23T04:14:57.971Z,1012.06
2017-01-23T04:15:57.985Z,1012.04
2017-01-23T04:16:57.991Z,1012.03
2017-01-23T04:17:58.004Z,1012.04
2017-01-23T04:18:58.012Z,1012.03
2017-01-23T04:19:58.019Z,1012.05
2017-01-23T04:20:58.033Z,1012.01
2017-01-23T04:21:58.037Z,1012.04
2017-01-23T04:22:58.050Z,1012.03
2017-01-23T04:23:58.055Z,1012.02
2017-01-23T04:24:58.071Z,1012.02
2017-01-23T04:25:58.075Z,1012.02
2017-01-23T04:26:58.089Z,1012.03
2017-01-23T04:27:58.092Z,1012.01
2017-01-23T04:28:58.103Z,1012.03
2017-01-23T04:29:58.116Z,1012
2017-01-23T04:30:58.121Z,1011.97
2017-01-23T04:31:58.130Z,1012
2017-01-23T04:32:58.140Z,1012.01
2017-01-23T04:33:58.150Z,1012.01
2017-01-23T04:34:58.160Z,1012.11
2017-01-23T04:35:58.174Z,1012.08
2017-01-23T04:36:58.184Z,1012.01
2017-01-23T04:37:58.186Z,1012.08
2017-01-23T04:38:58.200Z,1012.06
2017-01-23T04:39:58.205Z,1012.06
2017-01-23T04:40:58.217Z,1012.1
2017-01-23T04:41:58.227Z,1012.08
2017-01-23T04:42:58.244Z,1012.08
2017-01-23T04:43:58.241Z,1012.06
2017-01-23T04:44:58.277Z,1012.08
2017-01-23T04:45:58.260Z,1012.07
2017-01-23T04:46:58.267Z,1012.06
2017-01-23T04:47:58.279Z,1012.06
2017-01-23T04:48:58.285Z,1012.08
2017-01-23T04:49:58.296Z,1012.01
2017-01-23T04:50:58.306Z,1011.99
2017-01-23T04:51:58.313Z,1012.02
2017-01-23T04:52:58.323Z,1012.04
2017-01-23T04:53:58.332Z,1012.02
2017-01-23T04:54:58.341Z,1012.03
2017-01-23T04:55:58.351Z,1012.06
2017-01-23T04:56:58.361Z,1012.05
2017-01-23T04:57:58.373Z,1012.07
2017-01-23T04:58:58.378Z,1012.1
2017-01-23T04:59:58.389Z,1012.14
2017-01-23T05:00:58.396Z,1012.11
2017-01-23T05:01:58.406Z,1012.14
2017-01-23T05:02:58.421Z,1012.14
2017-01-23T05:03:58.425Z,1012.13
2017-01-23T05:04:58.436Z,1012.12
2017-01-23T05:05:58.441Z,1012.18
2017-01-23T05:06:58.453Z,1012.18
2017-01-23T05:07:58.459Z,1012.19
2017-01-23T05:08:58.469Z,1012.2
2017-01-23T05:09:58.480Z,1012.2
2017-01-23T05:10:58.486Z,1012.18
2017-01-23T05:11:58.494Z,1012.2
2017-01-23T05:12:58.506Z,1012.22
2017-01-23T05:13:58.518Z,1012.21
2017-01-23T05:14:58.523Z,1012.19
2017-01-23T05:15:58.538Z,1012.19
2017-01-23T05:16:58.543Z,1012.19
2017-01-23T05:17:58.553Z,1012.17
2017-01-23T05:18:58.560Z,1012.19
2017-01-23T05:19:58.571Z,1012.21
2017-01-23T05:20:58.582Z,1012.22
2017-01-23T05:21:58.587Z,1012.22
2017-01-23T05:22:58.598Z,1012.22
2017-01-23T05:23:58.608Z,1012.22
2017-01-23T05:24:58.620Z,1012.17
2017-01-23T05:25:58.625Z,1012.21
2017-01-23T05:26:58.633Z,1012.19
2017-01-23T05:27:58.643Z,1012.19
2017-01-23T05:28:58.652Z,1012.19
2017-01-23T05:29:58.668Z,1012.19
2017-01-23T05:30:58.676Z,1012.23
2017-01-23T05:31:58.679Z,1012.22
2017-01-23T05:32:58.688Z,1012.22
2017-01-23T05:33:58.697Z,1012.23
2017-01-23T05:34:58.712Z,1012.21
2017-01-23T05:35:58.720Z,1012.18
2017-01-23T05:36:58.725Z,1012.21
2017-01-23T05:37:58.737Z,1012.19
2017-01-23T05:38:58.744Z,1012.24
2017-01-23T05:39:58.756Z,1012.22
2017-01-23T05:40:58.760Z,1012.23
2017-01-23T05:41:58.776Z,1012.24
2017-01-23T05:42:58.780Z,1012.25
2017-01-23T05:43:58.787Z,1012.28
2017-01-23T05:44:58.808Z,1012.28
2017-01-23T05:45:58.814Z,1012.31
2017-01-23T05:46:58.820Z,1012.31
2017-01-23T05:47:58.836Z,1012.34
2017-01-23T05:48:58.834Z,1012.31
2017-01-23T05:49:58.844Z,1012.33
2017-01-23T05:50:58.852Z,1012.33
2017-01-23T05:51:58.860Z,1012.32
2017-01-23T05:52:58.869Z,1012.32
2017-01-23T05:53:58.879Z,1012.31
2017-01-23T05:54:58.888Z,1012.37
2017-01-23T05:55:58.900Z,1012.36
2017-01-23T05:56:58.909Z,1012.39
2017-01-23T05:57:58.920Z,1012.39
2017-01-23T05:58:58.926Z,1012.41
2017-01-23T05:59:58.936Z,1012.41
2017-01-23T06:00:58.944Z,1012.39
2017-01-23T06:01:58.952Z,1012.4
2017-01-23T06:02:58.960Z,1012.44
2017-01-23T06:03:58.973Z,1012.45
2017-01-23T06:04:58.984Z,1012.38
2017-01-23T06:05:58.987Z,1012.39
2017-01-23T06:06:58.997Z,1012.4
2017-01-23T06:07:59.008Z,1012.38
2017-01-23T06:08:59.016Z,1012.39
2017-01-23T06:09:59.024Z,1012.38
2017-01-23T06:10:59.036Z,1012.38
2017-01-23T06:11:59.044Z,1012.37
2017-01-23T06:12:59.050Z,1012.39
2017-01-23T06:13:59.066Z,1012.38
2017-01-23T06:14:59.076Z,1012.39
2017-01-23T06:15:59.083Z,1012.39
2017-01-23T06:16:59.087Z,1012.37
2017-01-23T06:17:59.100Z,1012.4
2017-01-23T06:18:59.107Z,1012.42
2017-01-23T06:19:59.121Z,1012.42
2017-01-23T06:20:59.123Z,1012.41
2017-01-23T06:21:59.138Z,1012.44
2017-01-23T06:22:59.145Z,1012.46
2017-01-23T06:23:59.157Z,1012.44
2017-01-23T06:24:59.161Z,1012.42
2017-01-23T06:25:59.173Z,1012.48
2017-01-23T06:26:59.181Z,1012.45
2017-01-23T06:27:59.188Z,1012.46
2017-01-23T06:28:59.200Z,1012.47
2017-01-23T06:29:59.205Z,1012.44
2017-01-23T06:30:59.218Z,1012.44
2017-01-23T06:31:59.223Z,1012.47
2017-01-23T06:32:59.235Z,1012.42
2017-01-23T06:33:59.249Z,1012.47
2017-01-23T06:34:59.251Z,1012.47
2017-01-23T06:35:59.262Z,1012.46
2017-01-23T06:36:59.268Z,1012.46
2017-01-23T06:37:59.279Z,1012.46
2017-01-23T06:38:59.289Z,1012.47
2017-01-23T06:39:59.296Z,1012.52
2017-01-23T06:40:59.311Z,1012.51
2017-01-23T06:41:59.315Z,1012.51
2017-01-23T06:42:59.327Z,1012.55
2017-01-23T06:43:59.336Z,1012.54
2017-01-23T06:44:59.346Z,1012.57
2017-01-23T06:45:59.349Z,1012.55
2017-01-23T06:46:59.363Z,1012.59
2017-01-23T06:47:59.369Z,1012.61
2017-01-23T06:48:59.380Z,1012.65
2017-01-23T06:49:59.387Z,1012.62
2017-01-23T06:50:59.395Z,1012.62
2017-01-23T06:51:59.409Z,1012.63
2017-01-23T06:52:59.415Z,1012.67
2017-01-23T06:53:59.423Z,1012.66
2017-01-23T06:54:59.433Z,1012.69
2017-01-23T06:55:59.446Z,1012.69
2017-01-23T06:56:59.451Z,1012.68
2017-01-23T06:57:59.462Z,1012.72
2017-01-23T06:58:59.474Z,1012.74
2017-01-23T06:59:59.480Z,1012.74
2017-01-23T07:00:59.489Z,1012.71
2017-01-23T07:01:59.496Z,1012.77
2017-01-23T07:02:59.513Z,1012.75
2017-01-23T07:03:59.518Z,1012.77
2017-01-23T07:04:59.527Z,1012.73
2017-01-23T07:05:59.536Z,1012.77
2017-01-23T07:06:59.547Z,1012.76
2017-01-23T07:07:59.561Z,1012.79
2017-01-23T07:08:59.572Z,1012.78
2017-01-23T07:09:59.575Z,1012.81
2017-01-23T07:10:59.586Z,1012.76
2017-01-23T07:11:59.588Z,1012.79
2017-01-23T07:12:59.597Z,1012.8
2017-01-23T07:13:59.606Z,1012.84
2017-01-23T07:14:59.619Z,1012.82
2017-01-23T07:15:59.635Z,1012.82
2017-01-23T07:16:59.634Z,1012.86
2017-01-23T07:17:59.645Z,1012.88
2017-01-23T07:18:59.653Z,1012.87
2017-01-23T07:19:59.662Z,1012.9
2017-01-23T07:20:59.672Z,1012.92
2017-01-23T07:21:59.686Z,1012.84
2017-01-23T07:22:59.689Z,1012.87
2017-01-23T07:23:59.701Z,1012.89
2017-01-23T07:24:59.710Z,1012.91
2017-01-23T07:25:59.716Z,1012.9
2017-01-23T07:26:59.728Z,1012.87
2017-01-23T07:27:59.735Z,1012.86
2017-01-23T07:28:59.751Z,1012.88
2017-01-23T07:29:59.757Z,1012.85
2017-01-23T07:30:59.768Z,1012.87
2017-01-23T07:31:59.771Z,1012.86
2017-01-23T07:32:59.780Z,1012.89
2017-01-23T07:33:59.789Z,1012.9
2017-01-23T07:34:59.798Z,1012.9
2017-01-23T07:35:59.808Z,1012.88
2017-01-23T07:36:59.821Z,1012.88
2017-01-23T07:37:59.828Z,1012.9
2017-01-23T07:38:59.840Z,1012.86
2017-01-23T07:39:59.845Z,1012.84
2017-01-23T07:40:59.853Z,1012.86
2017-01-23T07:41:59.862Z,1012.83
2017-01-23T07:42:59.874Z,1012.81
2017-01-23T07:43:59.882Z,1012.81
2017-01-23T07:44:59.890Z,1012.81
2017-01-23T07:45:59.899Z,1012.81
2017-01-23T07:46:59.914Z,1012.82
2017-01-23T07:47:59.933Z,1012.84
2017-01-23T07:48:59.933Z,1012.84
2017-01-23T07:49:59.936Z,1012.85
2017-01-23T07:50:59.944Z,1012.89
2017-01-23T07:51:59.953Z,1012.9
2017-01-23T07:52:59.963Z,1012.97
2017-01-23T07:53:59.975Z,1012.94
2017-01-23T07:54:59.982Z,1012.96
2017-01-23T07:55:59.992Z,1012.98
2017-01-23T07:57:00.010Z,1012.95
2017-01-23T07:58:00.009Z,1012.99
2017-01-23T07:59:00.017Z,1012.99
2017-01-23T08:00:00.032Z,1012.98
2017-01-23T08:01:00.037Z,1013.01
2017-01-23T08:02:00.049Z,1013.01
2017-01-23T08:03:00.058Z,1013
2017-01-23T08:04:00.070Z,1013
2017-01-23T08:05:00.077Z,1012.97
2017-01-23T08:06:00.083Z,1012.96
2017-01-23T08:07:00.091Z,1012.97
2017-01-23T08:08:00.102Z,1013.02
2017-01-23T08:09:00.113Z,1013.03
2017-01-23T08:10:00.118Z,1013.02
2017-01-23T08:11:00.132Z,1013.04
2017-01-23T08:12:00.138Z,1013.02
2017-01-23T08:13:00.148Z,1013.03
2017-01-23T08:14:00.156Z,1013.08
2017-01-23T08:15:00.166Z,1013.08
2017-01-23T08:16:00.179Z,1013.06
2017-01-23T08:17:00.188Z,1013.08
2017-01-23T08:18:00.195Z,1013.09
2017-01-23T08:19:00.211Z,1013.12
2017-01-23T08:20:00.216Z,1013.1
2017-01-23T08:21:00.223Z,1013.09
2017-01-23T08:22:00.229Z,1013.11
2017-01-23T08:23:00.241Z,1013.06
2017-01-23T08:24:00.251Z,1013.01
2017-01-23T08:25:00.260Z,1013.03
2017-01-23T08:26:00.275Z,1013.03
2017-01-23T08:27:00.275Z,1013.02
2017-01-23T08:28:00.286Z,1013.02
2017-01-23T08:29:00.295Z,1013.05
2017-01-23T08:30:00.311Z,1013.07
2017-01-23T08:31:00.317Z,1013.08
2017-01-23T08:32:00.330Z,1013.02
2017-01-23T08:33:00.330Z,1013.04
2017-01-23T08:34:00.347Z,1013.04
2017-01-23T08:35:00.349Z,1013.05
2017-01-23T08:36:00.363Z,1013.06
2017-01-23T08:37:00.372Z,1013.07
2017-01-23T08:38:00.378Z,1013.12
2017-01-23T08:39:00.387Z,1013.06
2017-01-23T08:40:00.406Z,1013.12
2017-01-23T08:41:00.410Z,1013.08
2017-01-23T08:42:00.417Z,1013.09
2017-01-23T08:43:00.429Z,1013.11
2017-01-23T08:44:00.434Z,1013.08
2017-01-23T08:45:00.447Z,1013.12
2017-01-23T08:46:00.457Z,1013.11
2017-01-23T08:47:00.467Z,1013.12
2017-01-23T08:48:00.493Z,1013.11
2017-01-23T08:49:00.483Z,1013.16
2017-01-23T08:50:00.495Z,1013.15
2017-01-23T08:51:00.499Z,1013.14
2017-01-23T08:52:00.508Z,1013.19
2017-01-23T08:53:00.524Z,1013.15
2017-01-23T08:54:00.532Z,1013.19
2017-01-23T08:55:00.535Z,1013.19
2017-01-23T08:56:00.545Z,1013.23
2017-01-23T08:57:00.561Z,1013.23
2017-01-23T08:58:00.574Z,1013.22
2017-01-23T08:59:00.575Z,1013.27
2017-01-23T09:00:00.583Z,1013.28
2017-01-23T09:01:00.600Z,1013.28
2017-01-23T09:02:00.613Z,1013.29
2017-01-23T09:03:00.611Z,1013.24
2017-01-23T09:04:00.624Z,1013.25
2017-01-23T09:05:00.636Z,1013.24
2017-01-23T09:06:00.644Z,1013.26
2017-01-23T09:07:00.649Z,1013.27
2017-01-23T09:08:00.661Z,1013.3
2017-01-23T09:09:00.671Z,1013.25
2017-01-23T09:10:00.685Z,1013.25
2017-01-23T09:11:00.687Z,1013.24
2017-01-23T09:12:00.704Z,1013.24
2017-01-23T09:13:00.710Z,1013.23
2017-01-23T09:14:00.717Z,1013.25
2017-01-23T09:15:00.730Z,1013.27
2017-01-23T09:16:00.740Z,1013.31
2017-01-23T09:17:00.745Z,1013.31
2017-01-23T09:18:00.758Z,1013.27
2017-01-23T09:19:00.770Z,1013.31
2017-01-23T09:20:00.976Z,1013.27
2017-01-23T09:21:00.787Z,1013.31
2017-01-23T09:22:00.792Z,1013.34
2017-01-23T09:23:00.801Z,1013.37
2017-01-23T09:24:00.825Z,1013.36
2017-01-23T09:25:00.825Z,1013.38
2017-01-23T09:26:00.837Z,1013.38
2017-01-23T09:27:00.867Z,1013.43
2017-01-23T09:28:00.854Z,1013.46
2017-01-23T09:29:00.859Z,1013.44
2017-01-23T09:30:00.875Z,1013.47
2017-01-23T09:31:00.876Z,1013.48
2017-01-23T09:32:00.892Z,1013.48
2017-01-23T09:33:00.898Z,1013.46
2017-01-23T09:34:00.909Z,1013.43
2017-01-23T09:35:00.920Z,1013.45
2017-01-23T09:36:00.933Z,1013.44
2017-01-23T09:37:00.942Z,1013.41
2017-01-23T09:38:00.947Z,1013.45
2017-01-23T09:39:00.959Z,1013.41
2017-01-23T09:40:00.969Z,1013.46
2017-01-23T09:41:00.973Z,1013.43
2017-01-23T09:42:00.986Z,1013.48
2017-01-23T09:43:00.990Z,1013.45
2017-01-23T09:44:01.002Z,1013.44
2017-01-23T09:45:01.012Z,1013.44
2017-01-23T09:46:01.025Z,1013.43
2017-01-23T09:47:01.034Z,1013.44
2017-01-23T09:48:01.048Z,1013.47
2017-01-23T09:49:01.050Z,1013.47
2017-01-23T09:50:01.066Z,1013.5
2017-01-23T09:51:01.073Z,1013.51
2017-01-23T09:52:01.084Z,1013.52
2017-01-23T09:53:01.091Z,1013.51
2017-01-23T09:54:01.100Z,1013.49
2017-01-23T09:55:01.108Z,1013.5
2017-01-23T09:56:01.122Z,1013.5
2017-01-23T09:57:01.126Z,1013.52
2017-01-23T09:58:01.135Z,1013.51
2017-01-23T09:59:01.148Z,1013.47
2017-01-23T10:00:01.158Z,1013.45
2017-01-23T10:01:01.166Z,1013.49
2017-01-23T10:02:01.183Z,1013.48
2017-01-23T10:03:01.193Z,1013.49
2017-01-23T10:04:01.202Z,1013.51
2017-01-23T10:05:01.203Z,1013.5
2017-01-23T10:06:01.214Z,1013.5
2017-01-23T10:07:01.229Z,1013.5
2017-01-23T10:08:01.232Z,1013.5
2017-01-23T10:09:01.245Z,1013.5
2017-01-23T10:10:01.270Z,1013.51
2017-01-23T10:11:01.262Z,1013.53
2017-01-23T10:12:01.277Z,1013.55
2017-01-23T10:13:01.280Z,1013.54
2017-01-23T10:14:01.297Z,1013.54
2017-01-23T10:15:01.308Z,1013.58
2017-01-23T10:16:01.313Z,1013.52
2017-01-23T10:17:01.327Z,1013.52
2017-01-23T10:18:01.333Z,1013.5
2017-01-23T10:19:01.341Z,1013.47
2017-01-23T10:20:01.347Z,1013.48
2017-01-23T10:21:01.359Z,1013.49
2017-01-23T10:22:01.366Z,1013.48
2017-01-23T10:23:01.380Z,1013.49
2017-01-23T10:24:01.393Z,1013.47
2017-01-23T10:25:01.404Z,1013.5
2017-01-23T10:26:01.413Z,1013.46
2017-01-23T10:27:01.416Z,1013.46
2017-01-23T10:28:01.428Z,1013.46
2017-01-23T10:29:01.435Z,1013.46
2017-01-23T10:30:01.451Z,1013.45
2017-01-23T10:31:01.455Z,1013.44
2017-01-23T10:32:01.471Z,1013.39
2017-01-23T10:33:01.476Z,1013.35
2017-01-23T10:34:01.496Z,1013.35
2017-01-23T10:35:01.496Z,1013.32
2017-01-23T10:36:01.508Z,1013.33
2017-01-23T10:37:01.516Z,1013.29
2017-01-23T10:38:01.528Z,1013.23
2017-01-23T10:39:01.531Z,1013.25
2017-01-23T10:40:01.543Z,1013.24
2017-01-23T10:41:01.558Z,1013.23
2017-01-23T10:42:01.566Z,1013.23
2017-01-23T10:43:01.569Z,1013.21
2017-01-23T10:44:01.606Z,1013.25
2017-01-23T10:45:01.589Z,1013.22
2017-01-23T10:46:01.605Z,1013.21
2017-01-23T10:47:01.609Z,1013.2
2017-01-23T10:48:01.622Z,1013.18
2017-01-23T10:49:01.627Z,1013.19
2017-01-23T10:50:01.641Z,1013.21
2017-01-23T10:51:01.648Z,1013.16
2017-01-23T10:52:01.661Z,1013.18
2017-01-23T10:53:01.667Z,1013.12
2017-01-23T10:54:01.684Z,1013.11
2017-01-23T10:55:01.690Z,1013.11
2017-01-23T10:56:01.700Z,1013.13
2017-01-23T10:57:01.707Z,1013.16
2017-01-23T10:58:01.717Z,1013.11
2017-01-23T10:59:01.726Z,1013.16
2017-01-23T11:00:01.734Z,1013.13
2017-01-23T11:01:01.745Z,1013.14
2017-01-23T11:02:01.758Z,1013.18
2017-01-23T11:03:01.770Z,1013.16
2017-01-23T11:04:01.779Z,1013.15
2017-01-23T11:05:01.803Z,1013.15
2017-01-23T11:06:01.800Z,1013.16
2017-01-23T11:07:01.809Z,1013.17
2017-01-23T11:08:01.817Z,1013.16
2017-01-23T11:09:01.822Z,1013.14
2017-01-23T11:10:01.832Z,1013.15
2017-01-23T11:11:01.841Z,1013.14
2017-01-23T11:12:01.858Z,1013.12
2017-01-23T11:13:01.859Z,1013.18
2017-01-23T11:14:01.876Z,1013.18
2017-01-23T11:15:01.880Z,1013.17
2017-01-23T11:16:01.900Z,1013.2
2017-01-23T11:17:01.901Z,1013.21
2017-01-23T11:18:01.913Z,1013.14
2017-01-23T11:19:01.922Z,1013.17
2017-01-23T11:20:01.932Z,1013.16
2017-01-23T11:21:01.939Z,1013.11
2017-01-23T11:22:01.950Z,1013.14
2017-01-23T11:23:01.962Z,1013.15
2017-01-23T11:24:01.969Z,1013.14
2017-01-23T11:25:01.980Z,1013.17
2017-01-23T11:26:01.987Z,1013.19
2017-01-23T11:27:01.998Z,1013.16
2017-01-23T11:28:02.011Z,1013.17
2017-01-23T11:29:02.022Z,1013.13
2017-01-23T11:30:02.028Z,1013.13
2017-01-23T11:31:02.036Z,1013.11
2017-01-23T11:32:02.053Z,1013.1
2017-01-23T11:33:02.057Z,1013.09
2017-01-23T11:34:02.070Z,1013.1
2017-01-23T11:35:02.079Z,1013.06
2017-01-23T11:36:02.097Z,1013.11
2017-01-23T11:37:02.098Z,1013.05
2017-01-23T11:38:02.105Z,1013.04
2017-01-23T11:39:02.116Z,1013.02
2017-01-23T11:40:02.129Z,1013.04
2017-01-23T11:41:02.140Z,1013.03
2017-01-23T11:42:02.144Z,1013.03
2017-01-23T11:43:02.155Z,1012.99
2017-01-23T11:44:02.166Z,1013
2017-01-23T11:45:02.186Z,1013
2017-01-23T11:46:02.185Z,1013
2017-01-23T11:47:02.194Z,1012.95
2017-01-23T11:48:02.208Z,1012.93
2017-01-23T11:49:02.213Z,1012.98
2017-01-23T11:50:02.228Z,1012.92
2017-01-23T11:51:02.239Z,1012.98
2017-01-23T11:52:02.258Z,1012.94
2017-01-23T11:53:02.250Z,1012.9
2017-01-23T11:54:02.264Z,1012.95
2017-01-23T11:55:02.273Z,1012.96
2017-01-23T11:56:02.284Z,1012.98
2017-01-23T11:57:02.296Z,1012.92
2017-01-23T11:58:02.304Z,1012.91
2017-01-23T11:59:02.316Z,1012.94
2017-01-23T12:00:02.322Z,1012.88
2017-01-23T12:01:02.329Z,1012.95
2017-01-23T12:02:02.346Z,1012.9
2017-01-23T12:03:02.352Z,1012.87
2017-01-23T12:04:02.364Z,1012.9
2017-01-23T12:05:02.372Z,1012.92
2017-01-23T12:06:02.389Z,1012.92
2017-01-23T12:07:02.392Z,1012.92
2017-01-23T12:08:02.401Z,1012.92
2017-01-23T12:09:02.411Z,1012.91